createdAt,value
2017-12-27T00:03:58.402Z,68.28
2017-12-27T00:06:31.639Z,66.65
2017-12-27T00:09:17.670Z,66.57
2017-12-27T00:11:52.180Z,66.24
2017-12-27T00:14:26.697Z,67.26
2017-12-27T00:17:01.367Z,68.34
2017-12-27T00:19:36.076Z,68.77
2017-12-27T00:22:10.758Z,69.03
2017-12-27T00:24:45.374Z,68.09
2017-12-27T00:27:20.463Z,68.31
2017-12-27T00:29:54.721Z,67.99
2017-12-27T00:32:21.836Z,68.72
2017-12-27T00:34:49.545Z,68.15
2017-12-27T00:37:17.264Z,67.79
2017-12-27T00:39:45.509Z,68.24
2017-12-27T00:42:13.615Z,68.68
2017-12-27T00:44:41.411Z,68.74
2017-12-27T00:47:09.048Z,69.11
2017-12-27T00:49:36.742Z,69.37
2017-12-27T00:52:04.392Z,69.14
2017-12-27T00:54:32.132Z,68.33
2017-12-27T00:56:59.890Z,67.29
2017-12-27T00:59:27.587Z,67.48
2017-12-27T01:01:55.331Z,70.56
2017-12-27T01:04:23.805Z,69.51
2017-12-27T01:06:51.396Z,71.21
2017-12-27T01:09:19.103Z,70.89
2017-12-27T01:11:46.715Z,71.62
2017-12-27T01:14:14.350Z,67.90
2017-12-27T01:16:42.180Z,67.02
2017-12-27T01:19:09.870Z,68.05
2017-12-27T01:21:37.550Z,69.12
2017-12-27T01:24:06.044Z,68.76
2017-12-27T01:26:34.302Z,68.06
2017-12-27T01:29:01.917Z,70.39
2017-12-27T01:31:29.532Z,70.74
2017-12-27T01:33:57.296Z,70.06
2017-12-27T01:36:24.968Z,70.17
2017-12-27T01:38:52.738Z,69.87
2017-12-27T01:41:20.836Z,70.16
2017-12-27T01:43:48.637Z,69.90
2017-12-27T01:46:16.366Z,67.04
2017-12-27T01:48:45.488Z,67.57
2017-12-27T01:51:13.464Z,69.32
2017-12-27T01:53:41.158Z,68.42
2017-12-27T01:56:09.850Z,68.78
2017-12-27T01:58:38.409Z,67.83
2017-12-27T02:01:06.567Z,69.37
2017-12-27T02:03:34.209Z,67.75
2017-12-27T02:06:02.016Z,67.44
2017-12-27T02:08:31.964Z,68.81
2017-12-27T02:10:59.615Z,71.20
2017-12-27T02:13:27.370Z,70.61
2017-12-27T02:15:55.041Z,70.16
2017-12-27T02:18:22.630Z,69.82
2017-12-27T02:20:51.159Z,69.56
2017-12-27T02:23:19.893Z,69.30
2017-12-27T02:25:47.936Z,69.42
2017-12-27T02:28:15.582Z,68.66
2017-12-27T02:30:43.337Z,69.46
2017-12-27T02:33:11.148Z,68.67
2017-12-27T02:35:39.785Z,65.64
2017-12-27T02:38:07.677Z,65.69
2017-12-27T02:40:36.501Z,68.97
2017-12-27T02:43:04.238Z,67.28
2017-12-27T02:45:32.974Z,67.43
2017-12-27T02:48:01.172Z,68.02
2017-12-27T02:50:29.568Z,68.16
2017-12-27T02:52:57.302Z,69.34
2017-12-27T02:55:27.128Z,74.05
2017-12-27T02:57:55.758Z,72.54
2017-12-27T03:00:23.496Z,72.94
2017-12-27T03:02:51.308Z,70.93
2017-12-27T03:05:19.082Z,70.08
2017-12-27T03:07:47.753Z,69.63
2017-12-27T03:10:15.428Z,69.76
2017-12-27T03:12:43.227Z,69.93
2017-12-27T03:15:10.933Z,69.62
2017-12-27T03:17:38.622Z,69.55
2017-12-27T03:20:06.308Z,70.05
2017-12-27T03:22:34.029Z,70.17
2017-12-27T03:25:01.723Z,68.15
2017-12-27T03:27:29.450Z,69.67
2017-12-27T03:29:57.123Z,68.69
2017-12-27T03:32:24.862Z,69.23
2017-12-27T03:34:52.558Z,69.25
2017-12-27T03:37:20.402Z,69.22
2017-12-27T03:39:49.983Z,68.42
2017-12-27T03:42:19.376Z,67.03
2017-12-27T03:44:47.134Z,68.62
2017-12-27T03:47:14.790Z,69.37
2017-12-27T03:49:42.431Z,70.06
2017-12-27T03:52:13.508Z,68.49
2017-12-27T03:54:48.878Z,68.45
2017-12-27T03:57:20.993Z,69.04
2017-12-27T03:59:50.899Z,68.19
2017-12-27T04:02:20.487Z,69.01
2017-12-27T04:04:48.614Z,69.07
2017-12-27T04:07:16.970Z,69.53
2017-12-27T04:09:44.895Z,67.13
2017-12-27T04:12:13.571Z,67.38
2017-12-27T04:14:41.406Z,69.00
2017-12-27T04:17:09.647Z,67.52
2017-12-27T04:19:37.366Z,67.65
2017-12-27T04:22:05.150Z,68.50
2017-12-27T04:24:33.226Z,67.36
2017-12-27T04:27:01.084Z,68.63
2017-12-27T04:29:28.742Z,69.14
2017-12-27T04:31:56.413Z,68.04
2017-12-27T04:34:25.192Z,69.36
2017-12-27T04:36:53.794Z,68.70
2017-12-27T04:39:21.660Z,68.52
2017-12-27T04:41:49.326Z,69.56
2017-12-27T04:44:17.046Z,68.65
2017-12-27T04:46:44.758Z,68.74
2017-12-27T04:49:12.741Z,69.51
2017-12-27T04:51:40.482Z,68.72
2017-12-27T04:54:08.282Z,68.72
2017-12-27T04:56:35.953Z,68.02
2017-12-27T04:59:03.722Z,67.73
2017-12-27T05:01:31.526Z,67.79
2017-12-27T05:03:59.513Z,67.35
2017-12-27T05:06:27.231Z,66.92
2017-12-27T05:08:55.372Z,68.07
2017-12-27T05:11:23.093Z,67.53
2017-12-27T05:13:50.808Z,67.68
2017-12-27T05:16:18.567Z,67.50
2017-12-27T05:18:46.278Z,67.15
2017-12-27T05:21:14.041Z,67.83
2017-12-27T05:23:41.742Z,67.94
2017-12-27T05:26:09.594Z,67.51
2017-12-27T05:28:37.312Z,67.54
2017-12-27T05:31:05.411Z,68.30
2017-12-27T05:33:33.215Z,68.08
2017-12-27T05:36:01.172Z,67.50
2017-12-27T05:38:29.066Z,67.37
2017-12-27T05:40:56.740Z,68.83
2017-12-27T05:43:24.531Z,66.92
2017-12-27T05:45:52.124Z,68.50
2017-12-27T05:48:19.785Z,68.06
2017-12-27T05:50:47.834Z,66.80
2017-12-27T05:53:16.530Z,65.67
2017-12-27T05:55:44.496Z,65.84
2017-12-27T05:58:12.315Z,68.30
2017-12-27T06:00:40.070Z,69.87
2017-12-27T06:03:07.997Z,72.01
2017-12-27T06:05:35.756Z,71.36
2017-12-27T06:08:03.501Z,69.31
2017-12-27T06:10:31.246Z,69.31
2017-12-27T06:12:59.636Z,68.33
2017-12-27T06:15:27.369Z,68.39
2017-12-27T06:17:55.094Z,68.67
2017-12-27T06:20:22.779Z,68.61
2017-12-27T06:22:50.592Z,69.08
2017-12-27T06:25:18.266Z,67.53
2017-12-27T06:27:46.041Z,69.48
2017-12-27T06:30:14.416Z,68.11
2017-12-27T06:32:42.186Z,64.87
2017-12-27T06:35:10.543Z,61.90
2017-12-27T06:37:39.297Z,61.40
2017-12-27T06:40:07.017Z,59.24
2017-12-27T06:42:36.323Z,59.65
2017-12-27T06:45:04.921Z,56.94
2017-12-27T06:47:32.810Z,60.00
2017-12-27T06:50:01.630Z,56.78
2017-12-27T06:52:29.544Z,52.48
2017-12-27T06:54:57.162Z,53.63
2017-12-27T06:57:24.926Z,51.55
2017-12-27T06:59:52.748Z,51.61
2017-12-27T07:02:20.773Z,51.36
2017-12-27T07:04:48.488Z,50.56
2017-12-27T07:07:16.472Z,48.39
2017-12-27T07:09:44.125Z,48.05
2017-12-27T07:12:11.789Z,45.75
2017-12-27T07:14:39.507Z,46.71
2017-12-27T07:17:07.361Z,45.54
2017-12-27T07:19:35.180Z,44.93
2017-12-27T07:22:03.980Z,46.83
2017-12-27T07:24:32.003Z,45.28
2017-12-27T07:27:01.196Z,44.75
2017-12-27T07:29:29.029Z,44.50
2017-12-27T07:31:56.869Z,44.99
2017-12-27T07:34:24.572Z,43.41
2017-12-27T07:36:52.247Z,43.02
2017-12-27T07:39:19.995Z,42.69
2017-12-27T07:41:48.124Z,46.54
2017-12-27T07:44:15.930Z,46.18
2017-12-27T07:46:44.025Z,47.91
2017-12-27T07:49:11.857Z,49.53
2017-12-27T07:51:41.411Z,49.33
2017-12-27T07:54:09.147Z,50.30
2017-12-27T07:56:37.803Z,49.57
2017-12-27T07:59:09.325Z,51.91
2017-12-27T08:01:37.197Z,52.27
2017-12-27T08:04:05.105Z,53.40
2017-12-27T08:06:33.072Z,52.55
2017-12-27T08:09:00.814Z,49.01
2017-12-27T08:11:29.425Z,45.96
2017-12-27T08:13:57.297Z,47.47
2017-12-27T08:16:25.886Z,45.72
2017-12-27T08:18:53.749Z,44.02
2017-12-27T08:21:21.441Z,43.89
2017-12-27T08:23:49.190Z,42.88
2017-12-27T08:26:16.930Z,43.09
2017-12-27T08:28:51.853Z,43.68
2017-12-27T08:31:21.455Z,46.06
2017-12-27T08:33:54.003Z,41.18
2017-12-27T08:36:23.045Z,39.03
2017-12-27T08:38:51.531Z,40.44
2017-12-27T08:41:19.754Z,39.56
2017-12-27T08:43:48.717Z,39.11
2017-12-27T08:46:40.843Z,41.35
2017-12-27T08:49:27.777Z,39.81
2017-12-27T08:51:56.214Z,37.67
2017-12-27T08:54:23.988Z,38.93
2017-12-27T08:56:54.403Z,38.95
2017-12-27T08:59:22.157Z,39.94
2017-12-27T09:01:50.116Z,40.24
2017-12-27T09:04:17.955Z,38.27
2017-12-27T09:06:47.557Z,37.79
2017-12-27T09:09:16.196Z,38.14
2017-12-27T09:11:44.837Z,38.88
2017-12-27T09:14:13.895Z,42.77
2017-12-27T09:16:42.124Z,40.89
2017-12-27T09:19:10.463Z,43.52
2017-12-27T09:21:39.912Z,43.90
2017-12-27T09:24:12.405Z,43.08
2017-12-27T09:26:40.610Z,45.15
2017-12-27T09:29:10.968Z,43.66
2017-12-27T09:31:39.022Z,49.00
2017-12-27T09:34:07.554Z,45.87
2017-12-27T09:36:36.483Z,49.77
2017-12-27T09:39:16.681Z,53.41
2017-12-27T09:47:12.836Z,49.34
2017-12-27T09:49:41.249Z,53.83
2017-12-27T09:52:09.506Z,57.95
2017-12-27T09:54:37.788Z,52.17
2017-12-27T09:57:07.798Z,55.15
2017-12-27T09:59:37.299Z,54.09
2017-12-27T10:02:06.292Z,52.73
2017-12-27T10:04:36.431Z,52.24
2017-12-27T10:07:04.265Z,51.28
2017-12-27T10:09:35.889Z,56.21
2017-12-27T10:12:03.928Z,56.57
2017-12-27T10:14:32.247Z,50.09
2017-12-27T10:17:06.890Z,49.69
2017-12-27T10:19:55.498Z,50.47
2017-12-27T10:29:20.618Z,55.61
2017-12-27T10:31:51.108Z,45.19
2017-12-27T10:34:19.752Z,43.28
2017-12-27T10:36:50.702Z,44.24
2017-12-27T10:43:47.880Z,43.67
2017-12-27T10:46:17.709Z,44.73
2017-12-27T10:48:45.653Z,43.97
2017-12-27T10:51:13.571Z,42.36
2017-12-27T10:53:41.666Z,42.51
2017-12-27T10:56:16.164Z,41.72
2017-12-27T10:58:54.351Z,42.42
2017-12-27T11:01:34.619Z,43.50
2017-12-27T11:04:07.086Z,43.06
2017-12-27T11:06:43.743Z,43.67
2017-12-27T11:12:51.257Z,42.89
2017-12-27T15:17:40.487Z,57.57
2017-12-27T15:20:08.110Z,56.92
2017-12-27T15:22:36.399Z,58.47
2017-12-27T15:25:04.063Z,56.67
2017-12-27T15:27:31.712Z,57.69
2017-12-27T15:30:03.193Z,57.78
2017-12-27T15:32:42.775Z,61.80
2017-12-27T15:35:10.531Z,61.90
2017-12-27T15:48:12.094Z,55.56
2017-12-27T15:50:44.593Z,55.95
2017-12-27T15:53:16.395Z,55.13
2017-12-27T15:55:49.921Z,54.96
2017-12-27T15:58:18.017Z,55.75
2017-12-27T16:00:45.959Z,55.70
2017-12-27T16:03:13.925Z,55.93
2017-12-27T16:05:42.750Z,55.50
2017-12-27T16:08:10.756Z,55.86
2017-12-27T16:10:40.187Z,54.54
2017-12-27T16:13:08.317Z,54.61
2017-12-27T16:15:40.055Z,54.61
2017-12-27T16:18:07.943Z,55.99
2017-12-27T16:20:39.273Z,54.88
2017-12-27T16:23:09.661Z,54.55
2017-12-27T16:25:37.457Z,54.63
2017-12-27T16:28:08.484Z,54.79
2017-12-27T16:30:38.328Z,55.26
2017-12-27T16:33:08.737Z,55.21
2017-12-27T16:35:36.516Z,54.85
2017-12-27T16:38:05.099Z,55.68
2017-12-27T16:40:33.269Z,55.58
2017-12-27T16:43:01.077Z,56.85
2017-12-27T16:45:29.314Z,57.93
2017-12-27T16:47:58.096Z,57.84
2017-12-27T16:50:26.730Z,58.49
2017-12-27T16:53:24.717Z,58.99
2017-12-27T16:55:57.896Z,59.71
2017-12-27T16:58:25.990Z,59.49
2017-12-27T17:00:54.147Z,59.92
2017-12-27T17:03:21.967Z,59.90
2017-12-27T17:05:50.401Z,60.88
2017-12-27T17:11:03.270Z,61.01
2017-12-27T17:13:33.338Z,61.19
2017-12-27T17:16:01.948Z,60.38
2017-12-27T17:18:30.871Z,60.57
2017-12-27T17:23:31.523Z,59.35
2017-12-27T17:25:59.487Z,58.14
2017-12-27T17:28:28.252Z,58.16
2017-12-27T17:30:58.797Z,57.78
2017-12-27T17:33:42.434Z,57.75
2017-12-27T17:36:22.056Z,57.06
2017-12-27T17:38:51.963Z,57.81
2017-12-27T17:45:32.683Z,56.77
2017-12-27T17:48:01.446Z,58.63
2017-12-27T17:50:37.797Z,58.46
2017-12-27T17:53:05.622Z,57.83
2017-12-27T17:55:33.767Z,58.09
2017-12-27T17:58:02.090Z,59.35
2017-12-27T18:00:30.086Z,58.23
2017-12-27T18:02:57.826Z,58.48
2017-12-27T18:05:26.236Z,58.16
2017-12-27T18:07:54.061Z,57.25
2017-12-27T18:10:22.289Z,58.45
2017-12-27T18:12:50.098Z,58.68
2017-12-27T18:15:17.934Z,59.05
2017-12-27T18:17:45.605Z,58.16
2017-12-27T18:20:13.335Z,58.36
2017-12-27T18:22:41.257Z,57.83
2017-12-27T18:25:08.964Z,57.79
2017-12-27T18:27:36.885Z,57.76
2017-12-27T18:30:12.660Z,58.83
2017-12-27T18:32:40.560Z,59.31
2017-12-27T18:35:08.191Z,59.36
2017-12-27T18:37:35.898Z,57.95
2017-12-27T18:40:03.821Z,58.34
2017-12-27T18:42:31.675Z,59.65
2017-12-27T18:44:59.370Z,60.15
2017-12-27T18:47:27.146Z,59.08
2017-12-27T18:49:54.934Z,57.84
2017-12-27T18:52:22.890Z,58.70
2017-12-27T18:54:50.588Z,58.78
2017-12-27T18:57:18.335Z,59.47
2017-12-27T18:59:46.028Z,59.30
2017-12-27T19:02:14.762Z,58.37
2017-12-27T19:04:42.653Z,59.71
2017-12-27T19:07:10.925Z,59.08
2017-12-27T19:09:39.732Z,58.83
2017-12-27T19:12:07.387Z,58.46
2017-12-27T19:14:35.034Z,57.18
2017-12-27T19:17:03.533Z,59.44
2017-12-27T19:19:31.463Z,59.68
2017-12-27T19:21:59.182Z,59.20
2017-12-27T19:24:29.621Z,58.93
2017-12-27T19:26:58.173Z,59.02
2017-12-27T19:29:26.440Z,57.29
2017-12-27T19:31:54.226Z,58.50
2017-12-27T19:34:22.123Z,59.10
2017-12-27T19:36:51.037Z,58.53
2017-12-27T19:39:19.289Z,58.52
2017-12-27T19:41:47.220Z,57.96
2017-12-27T19:44:15.159Z,57.91
2017-12-27T19:46:44.094Z,59.00
2017-12-27T19:49:11.754Z,59.15
2017-12-27T19:51:39.535Z,60.28
2017-12-27T19:54:07.572Z,60.67
2017-12-27T19:56:35.435Z,60.59
2017-12-27T19:59:03.420Z,61.29
2017-12-27T20:01:31.987Z,59.85
2017-12-27T20:03:59.785Z,60.42
2017-12-27T20:06:27.918Z,61.25
2017-12-27T20:08:55.659Z,64.63
2017-12-27T20:11:23.264Z,61.38
2017-12-27T20:13:54.873Z,60.16
2017-12-27T20:19:01.525Z,61.68
2017-12-27T20:21:44.690Z,61.43
2017-12-27T20:27:30.427Z,60.63
2017-12-27T20:30:13.403Z,61.06
2017-12-27T20:32:43.313Z,61.71
2017-12-27T20:35:12.430Z,60.32
2017-12-27T20:37:40.420Z,61.18
2017-12-27T20:40:13.562Z,61.70
2017-12-27T20:42:44.534Z,61.19
2017-12-27T20:45:12.573Z,61.60
2017-12-27T20:47:41.237Z,62.10
2017-12-27T20:50:23.611Z,62.60
2017-12-27T20:53:09.408Z,63.83
2017-12-27T20:55:45.200Z,62.14
2017-12-27T20:58:15.996Z,62.92
2017-12-27T21:00:44.306Z,64.15
2017-12-27T21:03:12.335Z,64.69
2017-12-27T21:08:50.825Z,62.91
2017-12-27T21:11:18.894Z,64.07
2017-12-27T21:13:47.511Z,64.92
2017-12-27T21:16:15.948Z,64.80
2017-12-27T21:22:13.242Z,62.35
2017-12-27T21:24:42.493Z,62.60
2017-12-27T21:27:11.215Z,62.82
2017-12-27T21:29:39.081Z,62.91
2017-12-27T21:32:06.989Z,61.71
2017-12-27T21:34:35.007Z,62.58
2017-12-27T21:37:02.913Z,62.40
2017-12-27T21:39:32.604Z,60.94
2017-12-27T21:42:02.647Z,60.87
2017-12-27T21:44:30.664Z,61.61
2017-12-27T21:46:58.611Z,60.94
2017-12-27T21:49:32.042Z,61.17
2017-12-27T21:52:06.648Z,61.94
2017-12-27T21:54:52.961Z,61.29
2017-12-27T22:00:19.173Z,61.16
2017-12-27T22:02:48.614Z,62.23
2017-12-27T22:05:18.553Z,61.73
2017-12-27T22:07:47.389Z,61.27
2017-12-27T22:10:15.890Z,61.67
2017-12-27T22:12:44.285Z,61.73
2017-12-27T22:15:13.993Z,61.66
2017-12-27T22:17:43.480Z,62.43
2017-12-27T22:33:24.377Z,62.88
2017-12-27T22:36:04.693Z,62.61
2017-12-27T22:38:36.595Z,62.62
2017-12-27T22:41:06.505Z,63.45
2017-12-27T22:43:38.544Z,62.68
2017-12-27T22:46:07.390Z,61.99
2017-12-27T22:48:37.385Z,62.03
2017-12-27T22:51:06.207Z,61.89
2017-12-27T22:53:33.961Z,60.70
2017-12-27T22:56:01.804Z,61.60
2017-12-27T22:58:29.683Z,63.64
2017-12-27T23:00:57.533Z,63.87
2017-12-27T23:03:26.007Z,62.91
2017-12-27T23:05:53.886Z,64.65
2017-12-27T23:08:22.211Z,67.27
2017-12-27T23:10:50.085Z,66.07
2017-12-27T23:13:18.245Z,65.74
2017-12-27T23:15:46.102Z,64.95
2017-12-27T23:18:14.702Z,65.23
2017-12-27T23:20:42.481Z,65.66
2017-12-27T23:23:10.657Z,65.47
2017-12-27T23:25:52.163Z,67.40
2017-12-27T23:28:19.998Z,67.00
2017-12-27T23:30:48.608Z,66.17
2017-12-27T23:33:16.981Z,64.48
2017-12-27T23:35:46.293Z,65.26
2017-12-27T23:38:15.291Z,65.71
2017-12-27T23:40:45.914Z,65.36
2017-12-27T23:43:13.599Z,67.68
2017-12-27T23:45:41.672Z,68.49
2017-12-27T23:48:13.842Z,69.48
2017-12-27T23:50:41.796Z,66.26
2017-12-27T23:53:11.636Z,68.66
2017-12-27T23:55:39.541Z,69.11
2017-12-27T23:58:09.888Z,68.44
